Buoy 52514

sailwx.info

Track history (hours):
 
Tides and Currents Weather Stations Pressure Air Temp Water Temp Dewpoint Dewpoint Depression Visibility Wind Speed Wind Dir Waves Ship Positions

Drifting buoy 52514

Last reported at 2014-Jul-24 04:00 UTC. Time now 2014-Jul-24 06:27 UTC.
Position N 23°19' E 123°26'.

Water temperature 26.3 ° C

Date/timePositionNaut miles runAvg speedWind from/ knotsBaromVisibWave heightAir tempDewpointWater temp
2014-Jul-24 04:00N 23°19' E 123°26'6 0.9 26.3
2014-Jul-23 21:00N 23°13' E 123°26'1 0.6 26.0
2014-Jul-23 20:00N 23°12' E 123°26'2 1.6 26.0
2014-Jul-23 19:00N 23°10' E 123°26'3 2.6 26.0
2014-Jul-23 18:00N 23°08' E 123°27'0 0.1 26.0
2014-Jul-23 17:00N 23°08' E 123°27'0 0.0 26.0
2014-Jul-23 16:00N 23°08' E 123°27'5 2.7 26.0
2014-Jul-23 14:00N 23°03' E 123°29'3 3.2 26.1
2014-Jul-23 13:00N 23°01' E 123°32'0 0.0 26.1
2014-Jul-23 12:00N 23°01' E 123°32'5 1.5 26.1
2014-Jul-23 09:00N 22°59' E 123°36'4 2.1 26.1
2014-Jul-23 07:00N 22°59' E 123°41'0 0.0 26.2
2014-Jul-23 06:00N 22°59' E 123°41'4 1.1 26.1
2014-Jul-23 02:00N 22°60' E 123°45'0 0.1 26.1
2014-Jul-22 22:00N 22°60' E 123°46'0 0.2 26.1
2014-Jul-22 21:00N 23°00' E 123°46'1 0.5 26.1
2014-Jul-22 20:00N 22°60' E 123°46'2 1.8 26.1
2014-Jul-22 19:00N 22°58' E 123°46'0 0.0 26.1
2014-Jul-22 17:00N 22°58' E 123°46'7 1.6 26.1
2014-Jul-22 13:00N 22°51' E 123°46'8 1.9 26.1
2014-Jul-22 09:00N 22°45' E 123°50'1 1.0 26.3
2014-Jul-22 08:00N 22°45' E 123°50'7 6.6 26.4
2014-Jul-22 07:00N 22°41' E 123°56'0 0.0 26.5
2014-Jul-22 05:00N 22°41' E 123°56'14 1.8 26.8
2014-Jul-21 21:00N 22°37' E 124°10'0 0.0 27.7
2014-Jul-21 20:00N 22°37' E 124°10'3 1.1 27.7
2014-Jul-21 17:00N 22°36' E 124°14'5 1.8 27.8
2014-Jul-21 14:00N 22°36' E 124°20'0 0.0 27.8
2014-Jul-21 13:00N 22°36' E 124°20'6 1.6 27.8
2014-Jul-21 09:00N 22°37' E 124°26'1 1.0 27.9
2014-Jul-21 08:00N 22°38' E 124°27'0 0.4 27.9
2014-Jul-21 07:00N 22°37' E 124°27'2 1.8 27.9
2014-Jul-21 06:00N 22°38' E 124°28'0 0.0 27.8
2014-Jul-21 05:00N 22°38' E 124°28'2 0.6 27.8
2014-Jul-21 01:00N 22°37' E 124°31'4 0.8 27.6
2014-Jul-20 20:00N 22°36' E 124°35'7 6.8 27.5
2014-Jul-20 19:00N 22°35' E 124°42'0 0.0 27.5
2014-Jul-20 17:00N 22°35' E 124°42'2 0.4 27.7
2014-Jul-20 12:00N 22°36' E 124°44'2 0.6 28.1
2014-Jul-20 09:00N 22°37' E 124°45'2 1.2 28.2
2014-Jul-20 07:00N 22°39' E 124°47'0 0.0 28.1
2014-Jul-20 06:00N 22°39' E 124°47'2 2.4 28.2
2014-Jul-20 05:00N 22°39' E 124°50'0 0.0 28.2
2014-Jul-20 04:00N 22°39' E 124°50'4 0.5 28.1
2014-Jul-19 20:00N 22°39' E 124°54'2 2.2 27.8
2014-Jul-19 19:00N 22°39' E 124°56'4 0.7 27.7
2014-Jul-19 13:00N 22°41' E 125°01'1 1.2 28.0
2014-Jul-19 12:00N 22°41' E 125°02'2 0.8 28.0
2014-Jul-19 09:00N 22°42' E 125°04'1 0.9 28.2
2014-Jul-19 08:00N 22°43' E 125°05'2 1.1 28.4
2014-Jul-19 06:00N 22°44' E 125°07'2 2.4 28.4
2014-Jul-19 05:00N 22°45' E 125°09'2 2.4 28.4
2014-Jul-19 04:00N 22°44' E 125°07'2 2.4 28.3
2014-Jul-19 03:00N 22°45' E 125°09'3 0.5 28.2
2014-Jul-18 20:00N 22°45' E 125°13'1 0.8 27.9
2014-Jul-18 19:00N 22°45' E 125°14'0 0.2 27.9
2014-Jul-18 18:00N 22°45' E 125°14'2 1.1 28.0
2014-Jul-18 16:00N 22°44' E 125°16'4 2.1 28.0
2014-Jul-18 14:00N 22°45' E 125°20'5 1.0 28.1
2014-Jul-18 09:00N 22°46' E 125°26'2 2.4 28.4
2014-Jul-18 08:00N 22°48' E 125°27'0 0.1 28.5
2014-Jul-18 06:00N 22°48' E 125°27'2 0.8 28.7
2014-Jul-18 04:00N 22°49' E 125°29'2 1.8 28.5
2014-Jul-18 03:00N 22°49' E 125°31'1 0.6 28.4
2014-Jul-18 02:00N 22°49' E 125°32'0 0.0 28.3
2014-Jul-18 00:00N 22°49' E 125°32'2 0.8 28.1
2014-Jul-17 21:00N 22°49' E 125°34'3 0.8 28.1
2014-Jul-17 18:00N 22°49' E 125°37'2 1.1 28.2
2014-Jul-17 16:00N 22°49' E 125°40'4 4.2 28.2
2014-Jul-17 15:00N 22°50' E 125°44'2 0.9 28.2
2014-Jul-17 13:00N 22°50' E 125°46'5 1.1 28.3
2014-Jul-17 08:00N 22°51' E 125°51'0 0.0 28.5
2014-Jul-17 07:00N 22°51' E 125°51'0 0.3 28.6
2014-Jul-17 06:00N 22°51' E 125°52'2 0.9 28.6
2014-Jul-17 04:00N 22°52' E 125°54'0 0.0 28.3
2014-Jul-17 03:00N 22°52' E 125°54'5 1.6 28.0
2014-Jul-17 00:00N 22°52' E 125°59'4 1.2 27.6
2014-Jul-16 21:00N 22°53' E 126°02'2 1.8 27.4
2014-Jul-16 20:00N 22°53' E 126°04'1 1.4 27.5
2014-Jul-16 19:00N 22°54' E 126°06'0 0.1 27.6
2014-Jul-16 18:00N 22°53' E 126°06'2 1.1 27.6
2014-Jul-16 16:00N 22°55' E 126°08'3 1.5 27.7
2014-Jul-16 14:00N 22°55' E 126°11'0 0.0 27.8
2014-Jul-16 13:00N 22°55' E 126°11'1 0.8 27.8
2014-Jul-16 12:00N 22°56' E 126°12'1 0.7 27.8
2014-Jul-16 10:00N 22°56' E 126°13'1 1.1 28.0
2014-Jul-16 09:00N 22°56' E 126°14'0 0.2 28.1
2014-Jul-16 08:00N 22°56' E 126°14'1 1.4 28.1
2014-Jul-16 07:00N 22°56' E 126°16'1 0.5 28.3
2014-Jul-16 06:00N 22°56' E 126°16'2 1.0 28.3
2014-Jul-16 04:00N 22°55' E 126°18'3 3.3 28.2
2014-Jul-16 03:00N 22°55' E 126°22'0 0.0 28.1
2014-Jul-16 02:00N 22°55' E 126°22'8 1.5 27.9
2014-Jul-15 21:00N 22°57' E 126°30'1 1.3 27.7
2014-Jul-15 20:00N 22°58' E 126°31'1 1.4 27.7
2014-Jul-15 19:00N 22°58' E 126°32'0 0.0 27.7
2014-Jul-15 18:00N 22°58' E 126°32'3 2.5 27.7
2014-Jul-15 17:00N 22°59' E 126°35'0 0.0 27.8
2014-Jul-15 16:00N 22°59' E 126°35'7 1.0 27.8
2014-Jul-15 09:00N 23°03' E 126°40'1 1.1 28.1
2014-Jul-15 08:00N 23°03' E 126°42'0 0.1 28.1
2014-Jul-15 06:00N 23°03' E 126°42'1 0.7 28.2
2014-Jul-15 04:00N 23°03' E 126°43'9 1.3 28.2
2014-Jul-14 21:00N 23°03' E 126°53'1 1.5 27.4
2014-Jul-14 20:00N 23°04' E 126°54'1 1.1 27.4
2014-Jul-14 19:00N 23°04' E 126°55'2 1.1 27.4
2014-Jul-14 17:00N 23°04' E 126°58'0 0.0 27.4
2014-Jul-14 16:00N 23°04' E 126°58'5 1.6 27.5
2014-Jul-14 13:00N 23°05' E 127°03'1 0.9 27.7
2014-Jul-14 12:00N 23°05' E 127°04'5 1.2 27.8
2014-Jul-14 08:00N 23°08' E 127°08'0 0.4 28.0
2014-Jul-14 07:00N 23°08' E 127°08'0 0.0 28.4
2014-Jul-14 06:00N 23°08' E 127°08'   28.6
Track history (hours):
 
Tides and Currents Weather Stations Pressure Air Temp Water Temp Dewpoint Dewpoint Depression Visibility Wind Speed Wind Dir Waves Ship Positions

Drifting buoy 52514

Last reported at 2014-Jul-24 04:00 UTC. Time now 2014-Jul-24 06:27 UTC.
Position N 23°19' E 123°26'.

Water temperature 26.3 ° C

Date/timePositionNaut miles runAvg speedWind from/ knotsBaromVisibWave heightAir tempDewpointWater temp
2014-Jul-24 04:00N 23°19' E 123°26'6 0.9 26.3
2014-Jul-23 21:00N 23°13' E 123°26'1 0.6 26.0
2014-Jul-23 20:00N 23°12' E 123°26'2 1.6 26.0
2014-Jul-23 19:00N 23°10' E 123°26'3 2.6 26.0
2014-Jul-23 18:00N 23°08' E 123°27'0 0.1 26.0
2014-Jul-23 17:00N 23°08' E 123°27'0 0.0 26.0
2014-Jul-23 16:00N 23°08' E 123°27'5 2.7 26.0
2014-Jul-23 14:00N 23°03' E 123°29'3 3.2 26.1
2014-Jul-23 13:00N 23°01' E 123°32'0 0.0 26.1
2014-Jul-23 12:00N 23°01' E 123°32'5 1.5 26.1
2014-Jul-23 09:00N 22°59' E 123°36'4 2.1 26.1
2014-Jul-23 07:00N 22°59' E 123°41'0 0.0 26.2
2014-Jul-23 06:00N 22°59' E 123°41'4 1.1 26.1
2014-Jul-23 02:00N 22°60' E 123°45'0 0.1 26.1
2014-Jul-22 22:00N 22°60' E 123°46'0 0.2 26.1
2014-Jul-22 21:00N 23°00' E 123°46'1 0.5 26.1
2014-Jul-22 20:00N 22°60' E 123°46'2 1.8 26.1
2014-Jul-22 19:00N 22°58' E 123°46'0 0.0 26.1
2014-Jul-22 17:00N 22°58' E 123°46'7 1.6 26.1
2014-Jul-22 13:00N 22°51' E 123°46'8 1.9 26.1
2014-Jul-22 09:00N 22°45' E 123°50'1 1.0 26.3
2014-Jul-22 08:00N 22°45' E 123°50'7 6.6 26.4
2014-Jul-22 07:00N 22°41' E 123°56'0 0.0 26.5
2014-Jul-22 05:00N 22°41' E 123°56'14 1.8 26.8
2014-Jul-21 21:00N 22°37' E 124°10'0 0.0 27.7
2014-Jul-21 20:00N 22°37' E 124°10'3 1.1 27.7
2014-Jul-21 17:00N 22°36' E 124°14'5 1.8 27.8
2014-Jul-21 14:00N 22°36' E 124°20'0 0.0 27.8
2014-Jul-21 13:00N 22°36' E 124°20'6 1.6 27.8
2014-Jul-21 09:00N 22°37' E 124°26'1 1.0 27.9
2014-Jul-21 08:00N 22°38' E 124°27'0 0.4 27.9
2014-Jul-21 07:00N 22°37' E 124°27'2 1.8 27.9
2014-Jul-21 06:00N 22°38' E 124°28'0 0.0 27.8
2014-Jul-21 05:00N 22°38' E 124°28'2 0.6 27.8
2014-Jul-21 01:00N 22°37' E 124°31'4 0.8 27.6
2014-Jul-20 20:00N 22°36' E 124°35'7 6.8 27.5
2014-Jul-20 19:00N 22°35' E 124°42'0 0.0 27.5
2014-Jul-20 17:00N 22°35' E 124°42'2 0.4 27.7
2014-Jul-20 12:00N 22°36' E 124°44'2 0.6 28.1
2014-Jul-20 09:00N 22°37' E 124°45'2 1.2 28.2
2014-Jul-20 07:00N 22°39' E 124°47'0 0.0 28.1
2014-Jul-20 06:00N 22°39' E 124°47'2 2.4 28.2
2014-Jul-20 05:00N 22°39' E 124°50'0 0.0 28.2
2014-Jul-20 04:00N 22°39' E 124°50'4 0.5 28.1
2014-Jul-19 20:00N 22°39' E 124°54'2 2.2 27.8
2014-Jul-19 19:00N 22°39' E 124°56'4 0.7 27.7
2014-Jul-19 13:00N 22°41' E 125°01'1 1.2 28.0
2014-Jul-19 12:00N 22°41' E 125°02'2 0.8 28.0
2014-Jul-19 09:00N 22°42' E 125°04'1 0.9 28.2
2014-Jul-19 08:00N 22°43' E 125°05'2 1.1 28.4
2014-Jul-19 06:00N 22°44' E 125°07'2 2.4 28.4
2014-Jul-19 05:00N 22°45' E 125°09'2 2.4 28.4
2014-Jul-19 04:00N 22°44' E 125°07'2 2.4 28.3
2014-Jul-19 03:00N 22°45' E 125°09'3 0.5 28.2
2014-Jul-18 20:00N 22°45' E 125°13'1 0.8 27.9
2014-Jul-18 19:00N 22°45' E 125°14'0 0.2 27.9
2014-Jul-18 18:00N 22°45' E 125°14'2 1.1 28.0
2014-Jul-18 16:00N 22°44' E 125°16'4 2.1 28.0
2014-Jul-18 14:00N 22°45' E 125°20'5 1.0 28.1
2014-Jul-18 09:00N 22°46' E 125°26'2 2.4 28.4
2014-Jul-18 08:00N 22°48' E 125°27'0 0.1 28.5
2014-Jul-18 06:00N 22°48' E 125°27'2 0.8 28.7
2014-Jul-18 04:00N 22°49' E 125°29'2 1.8 28.5
2014-Jul-18 03:00N 22°49' E 125°31'1 0.6 28.4
2014-Jul-18 02:00N 22°49' E 125°32'0 0.0 28.3
2014-Jul-18 00:00N 22°49' E 125°32'2 0.8 28.1
2014-Jul-17 21:00N 22°49' E 125°34'3 0.8 28.1
2014-Jul-17 18:00N 22°49' E 125°37'2 1.1 28.2
2014-Jul-17 16:00N 22°49' E 125°40'4 4.2 28.2
2014-Jul-17 15:00N 22°50' E 125°44'2 0.9 28.2
2014-Jul-17 13:00N 22°50' E 125°46'5 1.1 28.3
2014-Jul-17 08:00N 22°51' E 125°51'0 0.0 28.5
2014-Jul-17 07:00N 22°51' E 125°51'0 0.3 28.6
2014-Jul-17 06:00N 22°51' E 125°52'2 0.9 28.6
2014-Jul-17 04:00N 22°52' E 125°54'0 0.0 28.3
2014-Jul-17 03:00N 22°52' E 125°54'5 1.6 28.0
2014-Jul-17 00:00N 22°52' E 125°59'4 1.2 27.6
2014-Jul-16 21:00N 22°53' E 126°02'2 1.8 27.4
2014-Jul-16 20:00N 22°53' E 126°04'1 1.4 27.5
2014-Jul-16 19:00N 22°54' E 126°06'0 0.1 27.6
2014-Jul-16 18:00N 22°53' E 126°06'2 1.1 27.6
2014-Jul-16 16:00N 22°55' E 126°08'3 1.5 27.7
2014-Jul-16 14:00N 22°55' E 126°11'0 0.0 27.8
2014-Jul-16 13:00N 22°55' E 126°11'1 0.8 27.8
2014-Jul-16 12:00N 22°56' E 126°12'1 0.7 27.8
2014-Jul-16 10:00N 22°56' E 126°13'1 1.1 28.0
2014-Jul-16 09:00N 22°56' E 126°14'0 0.2 28.1
2014-Jul-16 08:00N 22°56' E 126°14'1 1.4 28.1
2014-Jul-16 07:00N 22°56' E 126°16'1 0.5 28.3
2014-Jul-16 06:00N 22°56' E 126°16'2 1.0 28.3
2014-Jul-16 04:00N 22°55' E 126°18'3 3.3 28.2
2014-Jul-16 03:00N 22°55' E 126°22'0 0.0 28.1
2014-Jul-16 02:00N 22°55' E 126°22'8 1.5 27.9
2014-Jul-15 21:00N 22°57' E 126°30'1 1.3 27.7
2014-Jul-15 20:00N 22°58' E 126°31'1 1.4 27.7
2014-Jul-15 19:00N 22°58' E 126°32'0 0.0 27.7
2014-Jul-15 18:00N 22°58' E 126°32'3 2.5 27.7
2014-Jul-15 17:00N 22°59' E 126°35'0 0.0 27.8
2014-Jul-15 16:00N 22°59' E 126°35'7 1.0 27.8
2014-Jul-15 09:00N 23°03' E 126°40'1 1.1 28.1
2014-Jul-15 08:00N 23°03' E 126°42'0 0.1 28.1
2014-Jul-15 06:00N 23°03' E 126°42'1 0.7 28.2
2014-Jul-15 04:00N 23°03' E 126°43'9 1.3 28.2
2014-Jul-14 21:00N 23°03' E 126°53'1 1.5 27.4
2014-Jul-14 20:00N 23°04' E 126°54'1 1.1 27.4
2014-Jul-14 19:00N 23°04' E 126°55'2 1.1 27.4
2014-Jul-14 17:00N 23°04' E 126°58'0 0.0 27.4
2014-Jul-14 16:00N 23°04' E 126°58'5 1.6 27.5
2014-Jul-14 13:00N 23°05' E 127°03'1 0.9 27.7
2014-Jul-14 12:00N 23°05' E 127°04'5 1.2 27.8
2014-Jul-14 08:00N 23°08' E 127°08'0 0.4 28.0
2014-Jul-14 07:00N 23°08' E 127°08'0 0.0 28.4
2014-Jul-14 06:00N 23°08' E 127°08'   28.6

Dump ship's entire track history